createdAt,value
2019-05-12T00:04:50.650Z,102116.64
2019-05-12T00:09:58.195Z,102123.27
2019-05-12T00:15:03.379Z,102129.66
2019-05-12T00:20:08.842Z,102133.48
2019-05-12T00:25:17.944Z,102140.81
2019-05-12T00:30:34.922Z,102139.20
2019-05-12T00:35:40.537Z,102157.89
2019-05-12T00:40:47.930Z,102168.63
2019-05-12T00:45:53.163Z,102174.64
2019-05-12T00:50:58.835Z,102172.00
2019-05-12T00:56:04.274Z,102184.66
2019-05-12T01:01:09.828Z,102188.72
2019-05-12T01:06:17.713Z,102205.45
2019-05-12T01:11:22.426Z,102219.70
2019-05-12T01:16:28.827Z,102229.66
2019-05-12T01:21:34.509Z,102231.36
2019-05-12T01:26:39.971Z,102236.80
2019-05-12T01:31:52.714Z,102239.39
2019-05-12T01:37:18.442Z,102249.08
2019-05-12T01:42:23.991Z,102255.03
2019-05-12T01:47:29.634Z,102257.75
2019-05-12T01:52:35.253Z,102261.55
2019-05-12T01:57:40.792Z,102269.40
2019-05-12T02:02:48.087Z,102278.79
2019-05-12T02:07:55.334Z,102279.48
2019-05-12T02:13:00.743Z,102290.63
2019-05-12T02:18:06.223Z,102294.70
2019-05-12T02:23:13.426Z,102299.95
2019-05-12T02:28:18.816Z,102310.03
2019-05-12T02:33:24.605Z,102316.86
2019-05-12T02:38:30.091Z,102325.16
2019-05-12T02:43:35.602Z,102332.72
2019-05-12T02:48:41.052Z,102332.58
2019-05-12T02:53:47.325Z,102341.61
2019-05-12T02:58:54.366Z,102349.20
2019-05-12T03:03:59.901Z,102356.92
2019-05-12T03:09:07.546Z,102358.42
2019-05-12T03:14:15.628Z,102371.27
2019-05-12T03:19:20.203Z,102381.42
2019-05-12T03:24:25.668Z,102390.37
2019-05-12T03:29:34.137Z,102385.23
2019-05-12T03:34:38.941Z,102398.27
2019-05-12T03:39:44.877Z,102406.88
2019-05-12T03:44:50.293Z,102411.75
2019-05-12T03:49:55.751Z,102418.25
2019-05-12T03:55:01.153Z,102429.64
2019-05-12T04:00:06.913Z,102429.80
2019-05-12T04:05:15.178Z,102437.19
2019-05-12T04:10:19.474Z,102454.64
2019-05-12T04:15:25.623Z,102456.48
2019-05-12T04:20:35.219Z,102465.23
2019-05-12T04:25:50.900Z,102483.22
2019-05-12T04:30:45.617Z,102487.57
2019-05-12T04:35:51.007Z,102503.94
2019-05-12T04:40:56.924Z,102504.45
2019-05-12T04:46:05.072Z,102510.28
2019-05-12T04:51:09.700Z,102519.68
2019-05-12T04:56:20.054Z,102524.98
2019-05-12T05:01:25.349Z,102524.91
2019-05-12T05:06:29.664Z,102538.45
2019-05-12T05:11:35.104Z,102545.81
2019-05-12T05:16:40.556Z,102544.19
2019-05-12T05:21:46.092Z,102556.65
2019-05-12T05:26:53.760Z,102572.13
2019-05-12T05:31:58.612Z,102584.84
2019-05-12T05:37:05.219Z,102588.92
2019-05-12T05:42:10.802Z,102592.67
2019-05-12T05:47:19.781Z,102598.91
2019-05-12T05:52:24.604Z,102614.37
2019-05-12T05:57:30.546Z,102619.52
2019-05-12T06:02:40.464Z,102621.51
2019-05-12T06:07:44.297Z,102621.47
2019-05-12T06:12:50.940Z,102624.92
2019-05-12T06:17:56.478Z,102628.72
2019-05-12T06:23:03.809Z,102636.87
2019-05-12T06:28:09.371Z,102638.81
2019-05-12T06:33:15.017Z,102647.40
2019-05-12T06:38:20.463Z,102658.88
2019-05-12T06:43:29.057Z,102661.16
2019-05-12T06:48:33.371Z,102662.84
2019-05-12T06:53:38.917Z,102662.78
2019-05-12T06:58:44.394Z,102658.41
2019-05-12T07:03:49.821Z,102668.80
2019-05-12T07:09:03.521Z,102675.73
2019-05-12T07:14:07.763Z,102672.30
2019-05-12T07:19:17.438Z,102663.53
2019-05-12T07:24:17.012Z,102662.58
2019-05-12T07:29:23.873Z,102667.73
2019-05-12T07:34:29.424Z,102661.98
2019-05-12T07:39:37.012Z,102668.95
2019-05-12T07:44:44.066Z,102663.47
2019-05-12T07:49:49.390Z,102647.59
2019-05-12T07:54:55.978Z,102661.75
2019-05-12T08:00:03.632Z,102671.00
2019-05-12T08:05:11.126Z,102671.58
2019-05-12T08:10:20.053Z,102681.62
2019-05-12T08:15:24.634Z,102696.62
2019-05-12T08:20:30.326Z,102694.27
2019-05-12T08:25:36.117Z,102675.05
2019-05-12T08:30:47.544Z,102655.25
2019-05-12T08:35:48.843Z,102638.42
2019-05-12T08:40:54.631Z,102632.64
2019-05-12T08:46:09.984Z,102646.77
2019-05-12T08:51:14.352Z,102673.16
2019-05-12T08:56:19.385Z,102677.87
2019-05-12T09:01:26.539Z,102678.41
2019-05-12T09:06:30.246Z,102665.57
2019-05-12T09:11:35.813Z,102670.95
2019-05-12T09:16:43.934Z,102683.34
2019-05-12T09:21:49.604Z,102669.64
2019-05-12T09:26:59.095Z,102678.75
2019-05-12T09:32:07.364Z,102665.86
2019-05-12T09:37:10.683Z,102675.23
2019-05-12T09:42:19.348Z,102680.09
2019-05-12T09:47:27.568Z,102670.64
2019-05-12T09:52:33.401Z,102684.23
2019-05-12T09:57:40.915Z,102697.25
2019-05-12T10:02:51.018Z,102688.98
2019-05-12T10:07:53.763Z,102709.40
2019-05-12T10:12:59.201Z,102714.44
2019-05-12T10:18:10.838Z,102723.75
2019-05-12T10:23:18.286Z,102729.50
2019-05-12T10:28:19.323Z,102739.58
2019-05-12T10:33:24.836Z,102731.03
2019-05-12T10:38:30.328Z,102729.89
2019-05-12T10:43:35.951Z,102733.16
2019-05-12T10:48:41.368Z,102732.84
2019-05-12T10:53:48.697Z,102719.86
2019-05-12T10:58:54.117Z,102727.07
2019-05-12T11:03:59.591Z,102731.52
2019-05-12T11:09:07.447Z,102719.23
2019-05-12T11:14:14.235Z,102726.06
2019-05-12T11:19:19.846Z,102737.72
2019-05-12T11:24:25.305Z,102735.83
2019-05-12T11:29:43.274Z,102727.97
2019-05-12T11:34:38.002Z,102739.20
2019-05-12T11:39:45.255Z,102736.80
2019-05-12T11:44:50.711Z,102736.48
2019-05-12T11:49:58.618Z,102738.74
2019-05-12T11:55:03.562Z,102746.33
2019-05-12T12:00:13.725Z,102743.31
2019-05-12T12:05:19.579Z,102740.83
2019-05-12T12:10:29.302Z,102752.25
2019-05-12T12:15:34.238Z,102753.18
2019-05-12T12:20:39.425Z,102758.52
2019-05-12T12:25:48.735Z,102758.28
2019-05-12T12:30:56.906Z,102764.78
2019-05-12T12:36:00.829Z,102766.08
2019-05-12T12:41:06.464Z,102771.09
2019-05-12T12:46:21.573Z,102762.67
2019-05-12T12:51:25.322Z,102777.48
2019-05-12T12:56:30.951Z,102768.48
2019-05-12T13:01:36.431Z,102773.89
2019-05-12T13:06:43.758Z,102774.54
2019-05-12T13:11:49.108Z,102771.28
2019-05-12T13:16:56.008Z,102781.11
2019-05-12T13:22:03.745Z,102784.28
2019-05-12T13:27:08.952Z,102781.27
2019-05-12T13:32:14.483Z,102778.23
2019-05-12T13:37:19.966Z,102785.39
2019-05-12T13:42:25.539Z,102785.34
2019-05-12T13:47:35.316Z,102793.31
2019-05-12T13:52:40.098Z,102785.35
2019-05-12T13:57:52.338Z,102793.97
2019-05-12T14:02:57.166Z,102782.12
2019-05-12T14:08:00.233Z,102784.14
2019-05-12T14:13:05.962Z,102793.11
2019-05-12T14:18:18.471Z,102796.97
2019-05-12T14:23:18.866Z,102813.25
2019-05-12T14:28:24.487Z,102811.05
2019-05-12T14:33:35.980Z,102799.08
2019-05-12T14:38:37.813Z,102796.14
2019-05-12T14:43:47.591Z,102793.95
2019-05-12T14:48:50.988Z,102788.14
2019-05-12T14:53:56.763Z,102790.50
2019-05-12T14:59:03.509Z,102781.70
2019-05-12T15:04:09.038Z,102784.92
2019-05-12T15:09:20.055Z,102795.02
2019-05-12T15:14:24.677Z,102795.39
2019-05-12T15:19:29.936Z,102799.53
2019-05-12T15:24:35.680Z,102809.31
2019-05-12T15:29:41.144Z,102814.66
2019-05-12T15:34:46.689Z,102814.61
2019-05-12T15:39:53.451Z,102815.60
2019-05-12T15:44:59.144Z,102804.52
2019-05-12T15:50:05.367Z,102815.42
2019-05-12T15:55:10.926Z,102819.66
2019-05-12T16:00:17.227Z,102822.31
2019-05-12T16:05:28.782Z,102826.05
2019-05-12T16:10:36.608Z,102825.48
2019-05-12T16:15:49.413Z,102823.82
2019-05-12T16:20:53.606Z,102843.63
2019-05-12T16:26:01.588Z,102834.33
2019-05-12T16:31:08.700Z,102850.07
2019-05-12T16:36:14.515Z,102849.51
2019-05-12T16:41:26.254Z,102852.72
2019-05-12T16:46:27.861Z,102858.02
2019-05-12T16:51:33.493Z,102870.28
2019-05-12T16:56:39.077Z,102862.17
2019-05-12T17:01:44.536Z,102868.23
2019-05-12T17:06:50.035Z,102870.86
2019-05-12T17:11:55.677Z,102877.73
2019-05-12T17:17:03.621Z,102872.41
2019-05-12T17:22:08.455Z,102881.41
2019-05-12T17:27:15.648Z,102885.61
2019-05-12T17:32:21.035Z,102891.06
2019-05-12T17:37:31.431Z,102899.13
2019-05-12T17:42:33.645Z,102901.45
2019-05-12T17:47:39.092Z,102903.96
2019-05-12T17:52:45.313Z,102911.25
2019-05-12T17:57:56.179Z,102912.58
2019-05-12T18:03:14.697Z,102910.30
2019-05-12T18:08:05.780Z,102917.35
2019-05-12T18:13:17.514Z,102912.08
2019-05-12T18:18:24.206Z,102914.50
2019-05-12T18:23:30.185Z,102925.55
2019-05-12T18:28:33.574Z,102925.77
2019-05-12T18:33:50.846Z,102928.58
2019-05-12T18:38:46.651Z,102927.72
2019-05-12T18:43:53.935Z,102932.62
2019-05-12T18:49:03.755Z,102939.89
2019-05-12T18:54:10.593Z,102947.47
2019-05-12T18:59:16.304Z,102953.38
2019-05-12T19:04:22.272Z,102951.68
2019-05-12T19:09:28.104Z,102960.16
2019-05-12T19:14:37.104Z,102972.22
2019-05-12T19:19:41.001Z,102985.52
2019-05-12T19:24:50.068Z,102986.73
2019-05-12T19:29:54.627Z,102992.63
2019-05-12T19:35:00.380Z,103003.59
2019-05-12T19:40:11.974Z,103010.12
2019-05-12T19:45:21.107Z,103012.58
2019-05-12T19:50:20.870Z,103013.19
2019-05-12T19:55:26.434Z,103017.84
2019-05-12T20:00:33.525Z,103027.28
2019-05-12T20:05:39.259Z,103026.51
2019-05-12T20:10:49.428Z,103025.56
2019-05-12T20:15:53.188Z,103029.87
2019-05-12T20:20:58.720Z,103035.39
2019-05-12T20:26:04.718Z,103036.22
2019-05-12T20:31:13.341Z,103046.11
2019-05-12T20:36:20.731Z,103042.92
2019-05-12T20:41:28.974Z,103043.55
2019-05-12T20:46:34.441Z,103050.28
2019-05-12T20:51:39.974Z,103052.99
2019-05-12T20:56:45.502Z,103063.05
2019-05-12T21:01:51.017Z,103064.08
2019-05-12T21:06:56.501Z,103078.28
2019-05-12T21:12:01.935Z,103081.89
2019-05-12T21:17:09.559Z,103088.43
2019-05-12T21:22:14.554Z,103095.00
2019-05-12T21:27:20.113Z,103095.68
2019-05-12T21:32:25.505Z,103099.34
2019-05-12T21:37:30.953Z,103103.23
2019-05-12T21:42:36.383Z,103107.52
2019-05-12T21:47:43.158Z,103120.37
2019-05-12T21:52:49.222Z,103116.65
2019-05-12T21:57:54.704Z,103117.52
2019-05-12T22:03:02.503Z,103126.91
2019-05-12T22:08:17.544Z,103131.25
2019-05-12T22:13:18.150Z,103127.42
2019-05-12T22:18:23.958Z,103136.00
2019-05-12T22:23:29.400Z,103144.83
2019-05-12T22:28:35.226Z,103144.17
2019-05-12T22:33:49.845Z,103151.55
2019-05-12T22:38:53.269Z,103163.80
2019-05-12T22:43:55.135Z,103171.33
2019-05-12T22:49:00.626Z,103177.03
2019-05-12T22:54:10.438Z,103180.91
2019-05-12T22:59:13.838Z,103180.34
2019-05-12T23:04:19.439Z,103179.48
2019-05-12T23:09:29.777Z,103181.67
2019-05-12T23:14:34.023Z,103187.96
2019-05-12T23:19:43.082Z,103195.53
2019-05-12T23:24:46.776Z,103200.80
2019-05-12T23:29:53.338Z,103195.87
2019-05-12T23:34:58.870Z,103196.45
2019-05-12T23:40:04.497Z,103196.03
2019-05-12T23:45:10.047Z,103196.41
2019-05-12T23:50:15.535Z,103205.77
2019-05-12T23:55:21.115Z,103203.45
